Retalhuleu Airport Retalhuleu US
ICAO: MGRT
IATA: RER
Category: Medium
Scheduled Services: No

Elevation: 656 ft
TransAlt. 0 ft.

Airport Communications:
TWR:118.8

MGRT Zoom In..

If you have problems with the map follow the link
https://www.worldairports.se/pages/airport.php?
ICAO=MGRT

Runways:

(A) RW 04 length 5065 ft width 100 ft
---- / hdg 47

(B) RW 22 length 5065 ft width 100 ft
---- / hdg 227

Location; MGRT
Day. 25 / Time. 23.00 Zulu
* Altimeter: 29.97
* Temperature: 25° c. 77°f.
* Wind from: 240° Speed 06 kn.
Dewpoint: 24° c.
Visibility: 6000 m.
Clouds: Broken 2000 ft.
Clouds: Scattered 8000 ft.
Conditions: Rain.

MGRT 252300Z 24006KT 6000 RA BKN020 SCT080 25/24 Q1015 A2997


Wind From 240°
Speed 06 kn.

 
 
jpsmedia worldairports.se 2020   terms of use